createdAt,value
2022-09-27T00:01:19.904Z,98905.79
2022-09-27T00:06:28.954Z,98905.45
2022-09-27T00:11:38.491Z,98895.60
2022-09-27T00:16:43.138Z,98891.54
2022-09-27T00:21:47.176Z,98892.88
2022-09-27T00:26:51.501Z,98887.15
2022-09-27T00:31:54.868Z,98877.08
2022-09-27T00:36:58.370Z,98866.00
2022-09-27T00:42:01.876Z,98857.89
2022-09-27T00:47:25.633Z,98854.48
2022-09-27T00:52:44.480Z,98851.08
2022-09-27T00:57:48.258Z,98861.25
2022-09-27T01:02:54.139Z,98856.02
2022-09-27T01:08:01.137Z,98851.12
2022-09-27T01:13:15.349Z,98832.30
2022-09-27T01:18:32.624Z,98824.38
2022-09-27T01:24:12.978Z,98822.27
2022-09-27T01:29:42.748Z,98814.58
2022-09-27T01:35:23.379Z,98799.80
2022-09-27T01:41:03.621Z,98793.30
2022-09-27T01:46:25.736Z,98782.13
2022-09-27T01:52:03.989Z,98776.48
2022-09-27T01:57:14.579Z,98769.58
2022-09-27T02:02:19.620Z,98761.23
2022-09-27T02:08:04.562Z,98753.09
2022-09-27T02:13:29.300Z,98749.58
2022-09-27T02:19:14.388Z,98740.77
2022-09-27T02:24:25.336Z,98732.65
2022-09-27T02:29:40.447Z,98727.80
2022-09-27T02:34:48.918Z,98723.93
2022-09-27T02:39:56.466Z,98712.01
2022-09-27T02:44:59.898Z,98700.71
2022-09-27T02:50:50.112Z,98693.11
2022-09-27T02:56:50.559Z,98698.15
2022-09-27T03:02:28.479Z,98694.80
2022-09-27T03:07:57.367Z,98689.91
2022-09-27T03:13:06.908Z,98687.33
2022-09-27T03:18:15.634Z,98685.36
2022-09-27T03:23:35.121Z,98683.22
2022-09-27T03:28:39.822Z,98667.89
2022-09-27T03:33:43.160Z,98660.95
2022-09-27T03:38:47.875Z,98652.70
2022-09-27T03:43:53.255Z,98646.08
2022-09-27T03:48:57.003Z,98642.02
2022-09-27T03:54:00.213Z,98636.52
2022-09-27T03:59:04.281Z,98632.87
2022-09-27T04:04:17.877Z,98635.83
2022-09-27T04:09:21.109Z,98639.08
2022-09-27T04:14:48.246Z,98628.23
2022-09-27T04:20:16.088Z,98625.20
2022-09-27T04:25:19.983Z,98622.83
2022-09-27T04:30:30.234Z,98620.48
2022-09-27T04:36:07.358Z,98625.40
2022-09-27T04:41:15.677Z,98628.96
2022-09-27T04:46:20.621Z,98633.55
2022-09-27T04:51:23.911Z,98624.27
2022-09-27T04:56:28.475Z,98622.73
2022-09-27T05:01:36.925Z,98614.66
2022-09-27T05:06:52.474Z,98609.75
2022-09-27T05:12:08.082Z,98607.00
2022-09-27T05:17:34.380Z,98611.77
2022-09-27T05:22:56.632Z,98610.16
2022-09-27T05:28:02.095Z,98608.22
2022-09-27T05:33:08.639Z,98603.91
2022-09-27T05:38:25.614Z,98603.60
2022-09-27T05:43:32.619Z,98605.33
2022-09-27T05:48:37.975Z,98605.71
2022-09-27T05:53:44.173Z,98604.27
2022-09-27T05:58:53.846Z,98604.69
2022-09-27T06:04:00.913Z,98596.66
2022-09-27T06:09:27.355Z,98576.09
2022-09-27T06:14:31.464Z,98573.44
2022-09-27T06:19:39.850Z,98569.39
2022-09-27T06:24:43.070Z,98554.02
2022-09-27T06:29:56.165Z,98554.61
2022-09-27T06:35:18.014Z,98568.08
2022-09-27T06:40:23.076Z,98583.73
2022-09-27T06:45:32.823Z,98586.04
2022-09-27T06:50:58.166Z,98577.15
2022-09-27T06:56:01.989Z,98581.56
2022-09-27T07:01:14.395Z,98579.65
2022-09-27T07:06:37.883Z,98567.78
2022-09-27T07:11:51.857Z,98571.63
2022-09-27T07:16:55.119Z,98572.23
2022-09-27T07:21:58.622Z,98573.91
2022-09-27T07:27:01.857Z,98575.17
2022-09-27T07:32:05.492Z,98578.39
2022-09-27T07:37:09.138Z,98576.66
2022-09-27T07:42:16.681Z,98568.71
2022-09-27T07:47:25.330Z,98560.47
2022-09-27T07:52:51.725Z,98568.95
2022-09-27T07:58:07.176Z,98571.26
2022-09-27T08:03:17.163Z,98574.09
2022-09-27T08:08:22.065Z,98566.20
2022-09-27T08:13:27.412Z,98562.88
2022-09-27T08:18:30.840Z,98560.81
2022-09-27T08:23:57.721Z,98551.73
2022-09-27T08:29:20.918Z,98541.70
2022-09-27T08:34:29.544Z,98544.28
2022-09-27T08:39:35.366Z,98556.23
2022-09-27T08:44:53.324Z,98561.13
2022-09-27T08:50:34.093Z,98570.13
2022-09-27T08:55:48.239Z,98571.08
2022-09-27T09:01:23.995Z,98565.77
2022-09-27T09:07:09.956Z,98560.84
2022-09-27T09:12:48.299Z,98567.36
2022-09-27T09:18:21.358Z,98565.91
2022-09-27T09:24:20.072Z,98560.49
2022-09-27T09:29:36.800Z,98547.02
2022-09-27T09:34:44.003Z,98544.97
2022-09-27T09:40:20.778Z,98538.44
2022-09-27T09:45:28.895Z,98532.92
2022-09-27T09:50:37.798Z,98528.45
2022-09-27T09:55:46.118Z,98519.83
2022-09-27T10:00:51.570Z,98527.15
2022-09-27T10:05:54.844Z,98521.31
2022-09-27T10:10:58.203Z,98512.09
2022-09-27T10:16:18.728Z,98509.54
2022-09-27T10:21:25.909Z,98504.80
2022-09-27T10:26:29.563Z,98503.27
2022-09-27T10:31:37.606Z,98498.61
2022-09-27T10:37:17.551Z,98495.08
2022-09-27T10:42:46.825Z,98492.96
2022-09-27T10:47:50.349Z,98496.05
2022-09-27T10:53:23.111Z,98499.52
2022-09-27T10:58:37.957Z,98502.54
2022-09-27T11:03:52.755Z,98504.38
2022-09-27T11:09:19.035Z,98505.41
2022-09-27T11:14:36.414Z,98505.51
2022-09-27T11:20:03.889Z,98504.73
2022-09-27T11:25:18.596Z,98505.91
2022-09-27T11:30:24.270Z,98499.20
2022-09-27T11:36:19.499Z,98492.48
2022-09-27T11:42:00.386Z,98481.98
2022-09-27T11:47:16.651Z,98474.05
2022-09-27T11:52:59.023Z,98474.73
2022-09-27T11:58:21.962Z,98460.70
2022-09-27T12:03:54.341Z,98455.52
2022-09-27T12:09:12.213Z,98456.59
2022-09-27T12:14:52.953Z,98459.41
2022-09-27T12:19:59.355Z,98453.45
2022-09-27T12:25:20.722Z,98454.60
2022-09-27T12:30:55.069Z,98449.89
2022-09-27T12:36:09.881Z,98449.88
2022-09-27T12:41:19.459Z,98456.45
2022-09-27T12:46:46.722Z,98449.30
2022-09-27T12:52:00.487Z,98449.66
2022-09-27T12:57:24.026Z,98451.55
2022-09-27T13:02:44.633Z,98449.72
2022-09-27T13:08:15.722Z,98444.98
2022-09-27T13:13:21.682Z,98439.98
2022-09-27T13:18:38.935Z,98436.65
2022-09-27T13:23:42.138Z,98435.15
2022-09-27T13:28:48.952Z,98434.23
2022-09-27T13:33:56.290Z,98430.06
2022-09-27T13:39:19.797Z,98426.41
2022-09-27T13:45:12.744Z,98421.45
2022-09-27T13:50:32.472Z,98425.47
2022-09-27T13:55:49.063Z,98420.17
2022-09-27T14:01:29.898Z,98411.08
2022-09-27T14:06:36.187Z,98404.98
2022-09-27T14:11:41.446Z,98400.26
2022-09-27T14:16:48.878Z,98404.83
2022-09-27T14:21:53.715Z,98417.88
2022-09-27T14:27:23.586Z,98422.98
2022-09-27T14:32:37.730Z,98423.29
2022-09-27T14:37:49.078Z,98416.34
2022-09-27T14:42:57.249Z,98414.33
2022-09-27T14:48:00.876Z,98409.77
2022-09-27T14:53:06.391Z,98418.75
2022-09-27T14:58:42.864Z,98421.41
2022-09-27T15:03:45.980Z,98417.67
2022-09-27T15:08:57.878Z,98424.16
2022-09-27T15:14:05.406Z,98424.16
2022-09-27T15:19:26.242Z,98429.73
2022-09-27T15:24:58.010Z,98426.67
2022-09-27T15:30:04.826Z,98425.34
2022-09-27T15:35:29.600Z,98425.16
2022-09-27T15:40:54.912Z,98432.29
2022-09-27T15:46:13.409Z,98429.77
2022-09-27T15:51:49.857Z,98438.52
2022-09-27T15:56:56.471Z,98443.56
2022-09-27T16:02:08.351Z,98442.63
2022-09-27T16:07:15.418Z,98444.00
2022-09-27T16:12:19.375Z,98443.27
2022-09-27T16:17:28.450Z,98449.27
2022-09-27T16:22:31.770Z,98458.17
2022-09-27T16:33:03.228Z,98496.29
2022-09-27T16:38:09.926Z,98504.36
2022-09-27T16:43:15.615Z,98506.11
2022-09-27T16:48:18.971Z,98517.98
2022-09-27T16:53:23.051Z,98520.97
2022-09-27T16:58:29.498Z,98526.67
2022-09-27T17:03:35.438Z,98536.85
2022-09-27T17:08:40.693Z,98543.39
2022-09-27T17:13:49.431Z,98537.06
2022-09-27T17:18:55.034Z,98537.11
2022-09-27T17:24:05.371Z,98548.48
2022-09-27T17:29:11.553Z,98548.63
2022-09-27T17:34:17.626Z,98550.30
2022-09-27T17:39:22.688Z,98554.42
2022-09-27T17:44:27.548Z,98562.00
2022-09-27T17:49:49.702Z,98563.97
2022-09-27T17:54:56.335Z,98567.80
2022-09-27T17:59:59.989Z,98576.31
2022-09-27T18:05:07.412Z,98581.66
2022-09-27T18:10:18.204Z,98590.13
2022-09-27T18:15:23.893Z,98588.38
2022-09-27T18:20:27.560Z,98592.95
2022-09-27T18:25:41.275Z,98592.18
2022-09-27T18:30:48.957Z,98590.25
2022-09-27T18:35:55.985Z,98597.48
2022-09-27T18:41:17.637Z,98593.94
2022-09-27T18:46:37.440Z,98600.64
2022-09-27T18:51:47.712Z,98605.07
2022-09-27T18:56:55.534Z,98615.50
2022-09-27T19:02:08.101Z,98619.52
2022-09-27T19:07:16.924Z,98624.08
2022-09-27T19:12:27.621Z,98626.98
2022-09-27T19:17:36.811Z,98627.96
2022-09-27T19:22:41.909Z,98632.88
2022-09-27T19:27:46.710Z,98632.40
2022-09-27T19:32:54.303Z,98634.48
2022-09-27T19:38:03.722Z,98640.77
2022-09-27T19:43:07.348Z,98640.91
2022-09-27T19:48:10.916Z,98642.70
2022-09-27T19:53:22.896Z,98639.05
2022-09-27T19:58:29.786Z,98634.61
2022-09-27T20:03:37.917Z,98644.30
2022-09-27T20:08:42.755Z,98645.12
2022-09-27T20:13:54.733Z,98647.47
2022-09-27T20:19:00.109Z,98645.30
2022-09-27T20:24:07.978Z,98642.67
2022-09-27T20:29:11.501Z,98643.56
2022-09-27T20:34:23.249Z,98643.77
2022-09-27T20:39:27.289Z,98646.61
2022-09-27T20:44:32.362Z,98638.79
2022-09-27T20:49:36.180Z,98640.20
2022-09-27T20:54:40.621Z,98636.08
2022-09-27T20:59:47.343Z,98639.81
2022-09-27T21:04:51.413Z,98642.45
2022-09-27T21:09:54.849Z,98641.16
2022-09-27T21:14:58.700Z,98646.52
2022-09-27T21:20:02.630Z,98651.13
2022-09-27T21:25:06.478Z,98654.73
2022-09-27T21:30:10.481Z,98659.70
2022-09-27T21:35:14.701Z,98663.18
2022-09-27T21:40:18.598Z,98664.09
2022-09-27T21:45:21.865Z,98672.02
2022-09-27T21:50:25.191Z,98668.97
2022-09-27T21:55:29.283Z,98665.07
2022-09-27T22:00:33.159Z,98661.74
2022-09-27T22:05:44.243Z,98664.05
2022-09-27T22:10:50.117Z,98666.59
2022-09-27T22:15:53.554Z,98673.10
2022-09-27T22:21:05.268Z,98675.30
2022-09-27T22:26:15.072Z,98673.71
2022-09-27T22:31:22.890Z,98669.36
2022-09-27T22:36:32.608Z,98667.61
2022-09-27T22:41:41.193Z,98666.20
2022-09-27T22:46:46.852Z,98665.56
2022-09-27T22:51:53.564Z,98658.73
2022-09-27T22:56:59.771Z,98656.83
2022-09-27T23:02:03.533Z,98650.30
2022-09-27T23:07:07.096Z,98650.88
2022-09-27T23:12:10.568Z,98656.56
2022-09-27T23:17:15.937Z,98659.19
2022-09-27T23:22:19.677Z,98660.36
2022-09-27T23:27:42.892Z,98657.23
2022-09-27T23:32:46.207Z,98658.06
2022-09-27T23:37:54.278Z,98658.83
2022-09-27T23:43:01.205Z,98651.48
2022-09-27T23:48:06.307Z,98651.55
2022-09-27T23:53:12.091Z,98652.36
2022-09-27T23:58:21.075Z,98654.58
